sensor_id;sensor_type;location;lat;lon;timestamp;P1;durP1;ratioP1;P2;durP2;ratioP2
52730;SDS011;38624;53.242;6.974;2023-10-09T00:02:10;6.35;;;2.20;;
52730;SDS011;38624;53.242;6.974;2023-10-09T00:04:40;8.73;;;2.40;;
52730;SDS011;38624;53.242;6.974;2023-10-09T00:07:07;5.63;;;2.28;;
52730;SDS011;38624;53.242;6.974;2023-10-09T00:09:34;7.30;;;2.33;;
52730;SDS011;38624;53.242;6.974;2023-10-09T00:12:16;5.43;;;2.35;;
52730;SDS011;38624;53.242;6.974;2023-10-09T00:14:47;5.88;;;2.38;;
52730;SDS011;38624;53.242;6.974;2023-10-09T00:17:15;8.00;;;3.05;;
52730;SDS011;38624;53.242;6.974;2023-10-09T00:19:42;8.18;;;2.58;;
52730;SDS011;38624;53.242;6.974;2023-10-09T00:22:13;9.85;;;2.97;;
52730;SDS011;38624;53.242;6.974;2023-10-09T00:25:02;7.03;;;2.63;;
52730;SDS011;38624;53.242;6.974;2023-10-09T00:27:40;6.78;;;2.58;;
52730;SDS011;38624;53.242;6.974;2023-10-09T00:30:11;5.55;;;2.35;;
52730;SDS011;38624;53.242;6.974;2023-10-09T00:32:44;5.47;;;2.28;;
52730;SDS011;38624;53.242;6.974;2023-10-09T00:35:36;5.05;;;2.45;;
52730;SDS011;38624;53.242;6.974;2023-10-09T00:38:10;7.05;;;2.30;;
52730;SDS011;38624;53.242;6.974;2023-10-09T00:40:48;5.65;;;2.50;;
52730;SDS011;38624;53.242;6.974;2023-10-09T00:43:30;6.32;;;3.28;;
52730;SDS011;38624;53.242;6.974;2023-10-09T00:45:59;7.53;;;2.50;;
52730;SDS011;38624;53.242;6.974;2023-10-09T00:48:37;8.80;;;2.92;;
52730;SDS011;38624;53.242;6.974;2023-10-09T00:51:06;5.57;;;2.70;;
52730;SDS011;38624;53.242;6.974;2023-10-09T00:53:45;6.25;;;3.00;;
52730;SDS011;38624;53.242;6.974;2023-10-09T00:56:17;6.07;;;3.20;;
52730;SDS011;38624;53.242;6.974;2023-10-09T00:58:48;6.93;;;3.20;;
52730;SDS011;38624;53.242;6.974;2023-10-09T01:01:21;6.10;;;3.30;;
52730;SDS011;38624;53.242;6.974;2023-10-09T01:03:53;7.55;;;3.75;;
52730;SDS011;38624;53.242;6.974;2023-10-09T01:06:19;9.13;;;3.92;;
52730;SDS011;38624;53.242;6.974;2023-10-09T01:11:31;9.57;;;3.95;;
52730;SDS011;38624;53.242;6.974;2023-10-09T01:13:57;9.38;;;3.85;;
52730;SDS011;38624;53.242;6.974;2023-10-09T01:16:49;7.93;;;4.25;;
52730;SDS011;38624;53.242;6.974;2023-10-09T01:19:18;11.45;;;5.05;;
52730;SDS011;38624;53.242;6.974;2023-10-09T01:21:48;10.70;;;4.72;;
52730;SDS011;38624;53.242;6.974;2023-10-09T01:24:15;15.57;;;6.43;;
52730;SDS011;38624;53.242;6.974;2023-10-09T01:26:41;17.77;;;6.93;;
52730;SDS011;38624;53.242;6.974;2023-10-09T01:29:21;14.52;;;7.05;;
52730;SDS011;38624;53.242;6.974;2023-10-09T01:34:25;14.05;;;7.15;;
52730;SDS011;38624;53.242;6.974;2023-10-09T01:37:19;17.60;;;7.75;;
52730;SDS011;38624;53.242;6.974;2023-10-09T01:39:58;16.73;;;7.75;;
52730;SDS011;38624;53.242;6.974;2023-10-09T01:42:24;18.92;;;8.90;;
52730;SDS011;38624;53.242;6.974;2023-10-09T01:45:10;20.23;;;8.88;;
52730;SDS011;38624;53.242;6.974;2023-10-09T01:47:36;21.00;;;8.95;;
52730;SDS011;38624;53.242;6.974;2023-10-09T01:50:06;21.20;;;8.90;;
52730;SDS011;38624;53.242;6.974;2023-10-09T01:52:47;18.38;;;8.95;;
52730;SDS011;38624;53.242;6.974;2023-10-09T01:55:13;23.23;;;8.60;;
52730;SDS011;38624;53.242;6.974;2023-10-09T01:57:52;18.00;;;9.52;;
52730;SDS011;38624;53.242;6.974;2023-10-09T02:00:18;24.15;;;9.77;;
52730;SDS011;38624;53.242;6.974;2023-10-09T02:02:49;24.17;;;10.50;;
52730;SDS011;38624;53.242;6.974;2023-10-09T02:05:15;20.35;;;10.30;;
52730;SDS011;38624;53.242;6.974;2023-10-09T02:07:41;23.20;;;10.55;;
52730;SDS011;38624;53.242;6.974;2023-10-09T02:10:26;23.95;;;11.02;;
52730;SDS011;38624;53.242;6.974;2023-10-09T02:13:04;25.10;;;11.70;;
52730;SDS011;38624;53.242;6.974;2023-10-09T02:15:42;30.48;;;12.93;;
52730;SDS011;38624;53.242;6.974;2023-10-09T02:18:15;28.25;;;13.38;;
52730;SDS011;38624;53.242;6.974;2023-10-09T02:20:42;34.28;;;13.77;;
52730;SDS011;38624;53.242;6.974;2023-10-09T02:23:10;40.28;;;14.93;;
52730;SDS011;38624;53.242;6.974;2023-10-09T02:25:39;44.92;;;16.27;;
52730;SDS011;38624;53.242;6.974;2023-10-09T02:28:11;38.67;;;15.98;;
52730;SDS011;38624;53.242;6.974;2023-10-09T02:30:46;37.80;;;16.35;;
52730;SDS011;38624;53.242;6.974;2023-10-09T02:33:15;44.33;;;16.73;;
52730;SDS011;38624;53.242;6.974;2023-10-09T02:35:56;40.53;;;16.85;;
52730;SDS011;38624;53.242;6.974;2023-10-09T02:38:27;45.10;;;17.63;;
52730;SDS011;38624;53.242;6.974;2023-10-09T02:40:56;45.50;;;17.90;;
52730;SDS011;38624;53.242;6.974;2023-10-09T02:43:29;38.70;;;17.20;;
52730;SDS011;38624;53.242;6.974;2023-10-09T02:46:16;38.13;;;16.70;;
52730;SDS011;38624;53.242;6.974;2023-10-09T02:48:43;36.88;;;16.17;;
52730;SDS011;38624;53.242;6.974;2023-10-09T02:51:16;41.38;;;16.52;;
52730;SDS011;38624;53.242;6.974;2023-10-09T02:53:51;34.88;;;14.55;;
52730;SDS011;38624;53.242;6.974;2023-10-09T02:56:17;34.22;;;13.85;;
52730;SDS011;38624;53.242;6.974;2023-10-09T02:58:52;34.35;;;14.40;;
52730;SDS011;38624;53.242;6.974;2023-10-09T03:01:18;38.08;;;13.93;;
52730;SDS011;38624;53.242;6.974;2023-10-09T03:03:44;30.38;;;13.10;;
52730;SDS011;38624;53.242;6.974;2023-10-09T03:06:14;28.73;;;13.68;;
52730;SDS011;38624;53.242;6.974;2023-10-09T03:08:48;26.85;;;12.15;;
52730;SDS011;38624;53.242;6.974;2023-10-09T03:11:14;32.60;;;13.82;;
52730;SDS011;38624;53.242;6.974;2023-10-09T03:13:40;33.30;;;14.47;;
52730;SDS011;38624;53.242;6.974;2023-10-09T03:16:08;29.80;;;15.07;;
52730;SDS011;38624;53.242;6.974;2023-10-09T03:18:49;35.42;;;15.93;;
52730;SDS011;38624;53.242;6.974;2023-10-09T03:21:16;41.30;;;17.88;;
52730;SDS011;38624;53.242;6.974;2023-10-09T03:23:43;38.15;;;17.75;;
52730;SDS011;38624;53.242;6.974;2023-10-09T03:26:15;37.92;;;18.20;;
52730;SDS011;38624;53.242;6.974;2023-10-09T03:28:47;37.28;;;18.35;;
52730;SDS011;38624;53.242;6.974;2023-10-09T03:31:14;39.58;;;19.20;;
52730;SDS011;38624;53.242;6.974;2023-10-09T03:33:40;41.90;;;19.58;;
52730;SDS011;38624;53.242;6.974;2023-10-09T03:36:06;37.63;;;18.23;;
52730;SDS011;38624;53.242;6.974;2023-10-09T03:38:38;44.65;;;19.80;;
52730;SDS011;38624;53.242;6.974;2023-10-09T03:41:04;42.70;;;20.05;;
52730;SDS011;38624;53.242;6.974;2023-10-09T03:46:05;40.85;;;20.08;;
52730;SDS011;38624;53.242;6.974;2023-10-09T03:48:38;50.58;;;21.13;;
52730;SDS011;38624;53.242;6.974;2023-10-09T03:51:03;47.45;;;20.42;;
52730;SDS011;38624;53.242;6.974;2023-10-09T03:53:36;39.75;;;20.80;;
52730;SDS011;38624;53.242;6.974;2023-10-09T03:56:04;47.03;;;20.98;;
52730;SDS011;38624;53.242;6.974;2023-10-09T03:58:37;47.30;;;20.88;;
52730;SDS011;38624;53.242;6.974;2023-10-09T04:01:08;45.72;;;21.45;;
52730;SDS011;38624;53.242;6.974;2023-10-09T04:03:51;48.38;;;21.05;;
52730;SDS011;38624;53.242;6.974;2023-10-09T04:06:20;44.80;;;20.80;;
52730;SDS011;38624;53.242;6.974;2023-10-09T04:08:47;46.05;;;21.30;;
52730;SDS011;38624;53.242;6.974;2023-10-09T04:11:15;45.67;;;22.38;;
52730;SDS011;38624;53.242;6.974;2023-10-09T04:13:45;40.05;;;19.38;;
52730;SDS011;38624;53.242;6.974;2023-10-09T04:16:15;50.67;;;23.67;;
52730;SDS011;38624;53.242;6.974;2023-10-09T04:19:00;48.13;;;22.35;;
52730;SDS011;38624;53.242;6.974;2023-10-09T04:21:32;51.03;;;23.05;;
52730;SDS011;38624;53.242;6.974;2023-10-09T04:24:01;52.28;;;22.77;;
52730;SDS011;38624;53.242;6.974;2023-10-09T04:26:40;48.15;;;22.50;;
52730;SDS011;38624;53.242;6.974;2023-10-09T04:29:13;46.88;;;22.60;;
52730;SDS011;38624;53.242;6.974;2023-10-09T04:31:55;53.67;;;23.95;;
52730;SDS011;38624;53.242;6.974;2023-10-09T04:34:25;53.95;;;23.35;;
52730;SDS011;38624;53.242;6.974;2023-10-09T04:36:57;58.38;;;25.38;;
52730;SDS011;38624;53.242;6.974;2023-10-09T04:39:29;49.80;;;23.50;;
52730;SDS011;38624;53.242;6.974;2023-10-09T04:41:55;56.65;;;24.60;;
52730;SDS011;38624;53.242;6.974;2023-10-09T04:44:42;56.38;;;25.50;;
52730;SDS011;38624;53.242;6.974;2023-10-09T04:47:36;52.65;;;24.23;;
52730;SDS011;38624;53.242;6.974;2023-10-09T04:52:40;57.83;;;25.08;;
52730;SDS011;38624;53.242;6.974;2023-10-09T04:55:06;54.07;;;25.40;;
52730;SDS011;38624;53.242;6.974;2023-10-09T04:57:45;55.30;;;24.85;;
52730;SDS011;38624;53.242;6.974;2023-10-09T05:00:14;52.72;;;24.50;;
52730;SDS011;38624;53.242;6.974;2023-10-09T05:02:50;45.38;;;22.10;;
52730;SDS011;38624;53.242;6.974;2023-10-09T05:05:34;67.57;;;26.58;;
52730;SDS011;38624;53.242;6.974;2023-10-09T05:08:09;60.47;;;25.45;;
52730;SDS011;38624;53.242;6.974;2023-10-09T05:10:50;53.38;;;24.65;;
52730;SDS011;38624;53.242;6.974;2023-10-09T05:13:26;60.30;;;25.92;;
52730;SDS011;38624;53.242;6.974;2023-10-09T05:16:13;59.35;;;26.33;;
52730;SDS011;38624;53.242;6.974;2023-10-09T05:18:58;62.58;;;26.60;;
52730;SDS011;38624;53.242;6.974;2023-10-09T05:21:52;61.20;;;24.67;;
52730;SDS011;38624;53.242;6.974;2023-10-09T05:24:18;63.83;;;27.77;;
52730;SDS011;38624;53.242;6.974;2023-10-09T05:26:45;67.10;;;27.50;;
52730;SDS011;38624;53.242;6.974;2023-10-09T05:29:14;60.40;;;25.70;;
52730;SDS011;38624;53.242;6.974;2023-10-09T05:31:58;53.67;;;25.65;;
52730;SDS011;38624;53.242;6.974;2023-10-09T05:34:53;64.60;;;26.98;;
52730;SDS011;38624;53.242;6.974;2023-10-09T05:37:31;50.55;;;23.27;;
52730;SDS011;38624;53.242;6.974;2023-10-09T05:40:02;68.47;;;27.05;;
52730;SDS011;38624;53.242;6.974;2023-10-09T05:42:40;63.35;;;27.67;;
52730;SDS011;38624;53.242;6.974;2023-10-09T05:45:16;50.47;;;23.48;;
52730;SDS011;38624;53.242;6.974;2023-10-09T05:47:52;69.03;;;26.52;;
52730;SDS011;38624;53.242;6.974;2023-10-09T05:50:22;48.90;;;22.10;;
52730;SDS011;38624;53.242;6.974;2023-10-09T05:52:52;55.75;;;24.30;;
52730;SDS011;38624;53.242;6.974;2023-10-09T05:55:19;65.78;;;26.75;;
52730;SDS011;38624;53.242;6.974;2023-10-09T05:58:04;68.03;;;24.35;;
52730;SDS011;38624;53.242;6.974;2023-10-09T06:00:42;64.90;;;25.20;;
52730;SDS011;38624;53.242;6.974;2023-10-09T06:03:26;53.95;;;24.77;;
52730;SDS011;38624;53.242;6.974;2023-10-09T06:06:10;47.75;;;22.05;;
52730;SDS011;38624;53.242;6.974;2023-10-09T06:08:43;57.33;;;23.05;;
52730;SDS011;38624;53.242;6.974;2023-10-09T06:11:10;64.25;;;24.88;;
52730;SDS011;38624;53.242;6.974;2023-10-09T06:13:56;50.75;;;20.58;;
52730;SDS011;38624;53.242;6.974;2023-10-09T06:16:28;45.63;;;19.70;;
52730;SDS011;38624;53.242;6.974;2023-10-09T06:19:13;56.47;;;22.95;;
52730;SDS011;38624;53.242;6.974;2023-10-09T06:21:45;40.92;;;19.77;;
52730;SDS011;38624;53.242;6.974;2023-10-09T06:24:21;48.65;;;21.63;;
52730;SDS011;38624;53.242;6.974;2023-10-09T06:27:02;50.15;;;20.05;;
52730;SDS011;38624;53.242;6.974;2023-10-09T06:29:31;46.83;;;19.88;;
52730;SDS011;38624;53.242;6.974;2023-10-09T06:32:08;34.55;;;15.45;;
52730;SDS011;38624;53.242;6.974;2023-10-09T06:34:45;40.72;;;17.95;;
52730;SDS011;38624;53.242;6.974;2023-10-09T06:37:18;38.47;;;16.40;;
52730;SDS011;38624;53.242;6.974;2023-10-09T06:39:59;30.33;;;13.75;;
52730;SDS011;38624;53.242;6.974;2023-10-09T06:42:44;37.00;;;14.63;;
52730;SDS011;38624;53.242;6.974;2023-10-09T06:45:16;34.25;;;15.60;;
52730;SDS011;38624;53.242;6.974;2023-10-09T06:47:42;38.80;;;14.73;;
52730;SDS011;38624;53.242;6.974;2023-10-09T06:50:29;36.33;;;12.70;;
52730;SDS011;38624;53.242;6.974;2023-10-09T06:53:14;27.15;;;13.75;;
52730;SDS011;38624;53.242;6.974;2023-10-09T06:55:42;36.97;;;13.23;;
52730;SDS011;38624;53.242;6.974;2023-10-09T06:58:17;29.77;;;12.52;;
52730;SDS011;38624;53.242;6.974;2023-10-09T07:01:07;35.70;;;13.70;;
52730;SDS011;38624;53.242;6.974;2023-10-09T07:03:50;27.55;;;11.55;;
52730;SDS011;38624;53.242;6.974;2023-10-09T07:06:19;32.00;;;12.38;;
52730;SDS011;38624;53.242;6.974;2023-10-09T07:08:57;33.15;;;12.70;;
52730;SDS011;38624;53.242;6.974;2023-10-09T07:11:31;36.60;;;12.20;;
52730;SDS011;38624;53.242;6.974;2023-10-09T07:16:53;29.35;;;12.80;;
52730;SDS011;38624;53.242;6.974;2023-10-09T07:19:26;46.22;;;11.43;;
52730;SDS011;38624;53.242;6.974;2023-10-09T07:22:07;28.02;;;11.88;;
52730;SDS011;38624;53.242;6.974;2023-10-09T07:24:54;32.77;;;12.90;;
52730;SDS011;38624;53.242;6.974;2023-10-09T07:27:25;29.63;;;12.63;;
52730;SDS011;38624;53.242;6.974;2023-10-09T07:30:19;26.38;;;11.75;;
52730;SDS011;38624;53.242;6.974;2023-10-09T07:32:55;24.92;;;11.73;;
52730;SDS011;38624;53.242;6.974;2023-10-09T07:35:43;29.60;;;12.18;;
52730;SDS011;38624;53.242;6.974;2023-10-09T07:38:20;25.38;;;11.27;;
52730;SDS011;38624;53.242;6.974;2023-10-09T07:41:16;26.67;;;11.25;;
52730;SDS011;38624;53.242;6.974;2023-10-09T07:43:42;30.53;;;12.27;;
52730;SDS011;38624;53.242;6.974;2023-10-09T07:46:08;27.47;;;10.33;;
52730;SDS011;38624;53.242;6.974;2023-10-09T07:48:57;25.55;;;11.98;;
52730;SDS011;38624;53.242;6.974;2023-10-09T07:51:34;29.95;;;12.25;;
52730;SDS011;38624;53.242;6.974;2023-10-09T07:54:01;27.52;;;12.07;;
52730;SDS011;38624;53.242;6.974;2023-10-09T07:59:18;25.20;;;10.93;;
52730;SDS011;38624;53.242;6.974;2023-10-09T08:01:45;25.92;;;11.88;;
52730;SDS011;38624;53.242;6.974;2023-10-09T08:04:21;22.50;;;9.30;;
52730;SDS011;38624;53.242;6.974;2023-10-09T08:07:06;29.65;;;11.88;;
52730;SDS011;38624;53.242;6.974;2023-10-09T08:09:44;36.08;;;11.45;;
52730;SDS011;38624;53.242;6.974;2023-10-09T08:12:16;25.08;;;10.48;;
52730;SDS011;38624;53.242;6.974;2023-10-09T08:15:04;29.73;;;11.90;;
52730;SDS011;38624;53.242;6.974;2023-10-09T08:17:53;31.58;;;11.82;;
52730;SDS011;38624;53.242;6.974;2023-10-09T08:20:24;25.98;;;10.10;;
52730;SDS011;38624;53.242;6.974;2023-10-09T08:25:18;26.20;;;9.40;;
52730;SDS011;38624;53.242;6.974;2023-10-09T08:27:59;24.60;;;9.48;;
52730;SDS011;38624;53.242;6.974;2023-10-09T08:30:40;30.05;;;10.65;;
52730;SDS011;38624;53.242;6.974;2023-10-09T08:33:14;23.73;;;9.75;;
52730;SDS011;38624;53.242;6.974;2023-10-09T08:35:55;26.35;;;10.82;;
52730;SDS011;38624;53.242;6.974;2023-10-09T08:38:27;21.75;;;9.63;;
52730;SDS011;38624;53.242;6.974;2023-10-09T08:40:55;25.17;;;10.82;;
52730;SDS011;38624;53.242;6.974;2023-10-09T08:43:23;24.02;;;13.75;;
52730;SDS011;38624;53.242;6.974;2023-10-09T08:45:51;21.40;;;8.80;;
52730;SDS011;38624;53.242;6.974;2023-10-09T08:48:19;23.15;;;9.38;;
52730;SDS011;38624;53.242;6.974;2023-10-09T08:50:52;28.85;;;10.13;;
52730;SDS011;38624;53.242;6.974;2023-10-09T08:53:21;22.13;;;9.70;;
52730;SDS011;38624;53.242;6.974;2023-10-09T08:55:49;25.95;;;10.23;;
52730;SDS011;38624;53.242;6.974;2023-10-09T08:58:15;25.60;;;9.50;;
52730;SDS011;38624;53.242;6.974;2023-10-09T09:00:46;24.63;;;9.73;;
52730;SDS011;38624;53.242;6.974;2023-10-09T09:03:13;23.98;;;9.80;;
52730;SDS011;38624;53.242;6.974;2023-10-09T09:05:46;22.10;;;9.07;;
52730;SDS011;38624;53.242;6.974;2023-10-09T09:08:26;50.20;;;31.85;;
52730;SDS011;38624;53.242;6.974;2023-10-09T09:11:10;19.50;;;10.65;;
52730;SDS011;38624;53.242;6.974;2023-10-09T09:13:40;28.40;;;9.20;;
52730;SDS011;38624;53.242;6.974;2023-10-09T09:16:23;24.70;;;9.52;;
52730;SDS011;38624;53.242;6.974;2023-10-09T09:18:56;23.63;;;9.48;;
52730;SDS011;38624;53.242;6.974;2023-10-09T09:21:28;25.10;;;7.95;;
52730;SDS011;38624;53.242;6.974;2023-10-09T09:23:55;16.15;;;8.00;;
52730;SDS011;38624;53.242;6.974;2023-10-09T09:26:42;23.00;;;8.43;;
52730;SDS011;38624;53.242;6.974;2023-10-09T09:29:12;29.10;;;9.93;;
52730;SDS011;38624;53.242;6.974;2023-10-09T09:31:40;19.67;;;8.15;;
52730;SDS011;38624;53.242;6.974;2023-10-09T09:34:17;24.70;;;8.35;;
52730;SDS011;38624;53.242;6.974;2023-10-09T09:36:56;19.13;;;7.97;;
52730;SDS011;38624;53.242;6.974;2023-10-09T09:39:24;23.85;;;8.48;;
52730;SDS011;38624;53.242;6.974;2023-10-09T09:41:58;20.17;;;8.20;;
52730;SDS011;38624;53.242;6.974;2023-10-09T09:44:42;17.77;;;6.82;;
52730;SDS011;38624;53.242;6.974;2023-10-09T09:47:13;17.50;;;6.93;;
52730;SDS011;38624;53.242;6.974;2023-10-09T09:49:53;20.63;;;7.60;;
52730;SDS011;38624;53.242;6.974;2023-10-09T09:52:29;15.20;;;7.25;;
52730;SDS011;38624;53.242;6.974;2023-10-09T09:57:39;14.95;;;6.88;;
52730;SDS011;38624;53.242;6.974;2023-10-09T10:00:06;20.90;;;6.28;;
52730;SDS011;38624;53.242;6.974;2023-10-09T10:02:52;18.35;;;7.15;;
52730;SDS011;38624;53.242;6.974;2023-10-09T10:05:23;17.08;;;6.78;;
52730;SDS011;38624;53.242;6.974;2023-10-09T10:07:56;16.10;;;6.65;;
52730;SDS011;38624;53.242;6.974;2023-10-09T10:16:07;16.77;;;6.75;;
52730;SDS011;38624;53.242;6.974;2023-10-09T10:18:53;16.83;;;7.25;;
52730;SDS011;38624;53.242;6.974;2023-10-09T10:21:25;15.98;;;8.00;;
52730;SDS011;38624;53.242;6.974;2023-10-09T10:24:00;60.50;;;23.60;;
52730;SDS011;38624;53.242;6.974;2023-10-09T10:26:35;17.10;;;7.18;;
52730;SDS011;38624;53.242;6.974;2023-10-09T10:29:17;19.40;;;6.95;;
52730;SDS011;38624;53.242;6.974;2023-10-09T10:31:59;23.08;;;7.35;;
52730;SDS011;38624;53.242;6.974;2023-10-09T10:37:33;16.83;;;9.02;;
52730;SDS011;38624;53.242;6.974;2023-10-09T10:40:26;16.77;;;6.40;;
52730;SDS011;38624;53.242;6.974;2023-10-09T10:43:06;12.48;;;5.65;;
52730;SDS011;38624;53.242;6.974;2023-10-09T10:48:47;18.73;;;6.82;;
52730;SDS011;38624;53.242;6.974;2023-10-09T10:51:14;14.32;;;6.35;;
52730;SDS011;38624;53.242;6.974;2023-10-09T10:53:52;20.27;;;7.97;;
52730;SDS011;38624;53.242;6.974;2023-10-09T10:56:25;26.33;;;9.32;;
52730;SDS011;38624;53.242;6.974;2023-10-09T10:59:00;18.52;;;6.68;;
52730;SDS011;38624;53.242;6.974;2023-10-09T11:01:33;20.65;;;7.88;;
52730;SDS011;38624;53.242;6.974;2023-10-09T11:04:22;97.45;;;58.00;;
52730;SDS011;38624;53.242;6.974;2023-10-09T11:06:54;18.42;;;11.55;;
52730;SDS011;38624;53.242;6.974;2023-10-09T11:10:02;87.05;;;30.77;;
52730;SDS011;38624;53.242;6.974;2023-10-09T11:15:38;19.50;;;12.07;;
52730;SDS011;38624;53.242;6.974;2023-10-09T11:18:12;14.52;;;5.88;;
52730;SDS011;38624;53.242;6.974;2023-10-09T11:20:45;19.25;;;7.35;;
52730;SDS011;38624;53.242;6.974;2023-10-09T11:23:30;12.77;;;5.85;;
52730;SDS011;38624;53.242;6.974;2023-10-09T11:25:59;12.55;;;5.55;;
52730;SDS011;38624;53.242;6.974;2023-10-09T11:28:45;43.65;;;19.08;;
52730;SDS011;38624;53.242;6.974;2023-10-09T11:31:23;16.10;;;5.22;;
52730;SDS011;38624;53.242;6.974;2023-10-09T11:33:49;13.03;;;8.27;;
52730;SDS011;38624;53.242;6.974;2023-10-09T11:36:17;18.23;;;9.70;;
52730;SDS011;38624;53.242;6.974;2023-10-09T11:38:46;8.82;;;3.83;;
52730;SDS011;38624;53.242;6.974;2023-10-09T11:41:19;14.32;;;7.05;;
52730;SDS011;38624;53.242;6.974;2023-10-09T11:43:48;8.80;;;3.67;;
52730;SDS011;38624;53.242;6.974;2023-10-09T11:46:18;10.77;;;3.90;;
52730;SDS011;38624;53.242;6.974;2023-10-09T11:49:04;12.02;;;4.43;;
52730;SDS011;38624;53.242;6.974;2023-10-09T11:51:50;12.80;;;5.53;;
52730;SDS011;38624;53.242;6.974;2023-10-09T11:54:35;14.65;;;3.65;;
52730;SDS011;38624;53.242;6.974;2023-10-09T11:57:01;12.45;;;4.13;;
52730;SDS011;38624;53.242;6.974;2023-10-09T11:59:28;9.32;;;3.70;;
52730;SDS011;38624;53.242;6.974;2023-10-09T12:01:59;11.65;;;3.42;;
52730;SDS011;38624;53.242;6.974;2023-10-09T12:04:26;6.55;;;3.15;;
52730;SDS011;38624;53.242;6.974;2023-10-09T12:06:56;12.02;;;3.50;;
52730;SDS011;38624;53.242;6.974;2023-10-09T12:09:38;11.32;;;4.00;;
52730;SDS011;38624;53.242;6.974;2023-10-09T12:12:05;10.95;;;4.18;;
52730;SDS011;38624;53.242;6.974;2023-10-09T12:14:32;11.43;;;4.32;;
52730;SDS011;38624;53.242;6.974;2023-10-09T12:16:59;10.60;;;3.70;;
52730;SDS011;38624;53.242;6.974;2023-10-09T12:19:35;11.50;;;3.63;;
52730;SDS011;38624;53.242;6.974;2023-10-09T12:22:02;16.00;;;4.22;;
52730;SDS011;38624;53.242;6.974;2023-10-09T12:24:30;9.07;;;3.50;;
52730;SDS011;38624;53.242;6.974;2023-10-09T12:26:56;20.80;;;4.78;;
52730;SDS011;38624;53.242;6.974;2023-10-09T12:29:22;12.33;;;4.43;;
52730;SDS011;38624;53.242;6.974;2023-10-09T12:31:49;20.30;;;4.25;;
52730;SDS011;38624;53.242;6.974;2023-10-09T12:34:23;12.43;;;3.92;;
52730;SDS011;38624;53.242;6.974;2023-10-09T12:36:56;17.38;;;5.85;;
52730;SDS011;38624;53.242;6.974;2023-10-09T12:39:32;13.88;;;4.43;;
52730;SDS011;38624;53.242;6.974;2023-10-09T12:42:05;13.35;;;4.57;;
52730;SDS011;38624;53.242;6.974;2023-10-09T12:44:34;14.70;;;4.35;;
52730;SDS011;38624;53.242;6.974;2023-10-09T12:47:07;12.35;;;3.67;;
52730;SDS011;38624;53.242;6.974;2023-10-09T12:49:36;12.82;;;4.40;;
52730;SDS011;38624;53.242;6.974;2023-10-09T12:52:06;15.82;;;4.47;;
52730;SDS011;38624;53.242;6.974;2023-10-09T12:54:41;10.68;;;3.97;;
52730;SDS011;38624;53.242;6.974;2023-10-09T12:57:12;16.52;;;4.20;;
52730;SDS011;38624;53.242;6.974;2023-10-09T12:59:39;12.68;;;3.83;;
52730;SDS011;38624;53.242;6.974;2023-10-09T13:02:11;14.07;;;3.70;;
52730;SDS011;38624;53.242;6.974;2023-10-09T13:05:00;11.88;;;4.93;;
52730;SDS011;38624;53.242;6.974;2023-10-09T13:07:28;9.43;;;3.92;;
52730;SDS011;38624;53.242;6.974;2023-10-09T13:09:54;16.07;;;4.07;;
52730;SDS011;38624;53.242;6.974;2023-10-09T13:12:37;8.00;;;3.38;;
52730;SDS011;38624;53.242;6.974;2023-10-09T13:15:09;13.88;;;3.67;;
52730;SDS011;38624;53.242;6.974;2023-10-09T13:17:36;12.30;;;7.13;;
52730;SDS011;38624;53.242;6.974;2023-10-09T13:20:03;13.30;;;4.15;;
52730;SDS011;38624;53.242;6.974;2023-10-09T13:22:38;14.35;;;4.15;;
52730;SDS011;38624;53.242;6.974;2023-10-09T13:25:05;10.75;;;4.60;;
52730;SDS011;38624;53.242;6.974;2023-10-09T13:27:32;13.02;;;3.63;;
52730;SDS011;38624;53.242;6.974;2023-10-09T13:30:01;10.77;;;3.65;;
52730;SDS011;38624;53.242;6.974;2023-10-09T13:32:33;8.90;;;3.50;;
52730;SDS011;38624;53.242;6.974;2023-10-09T13:35:04;13.98;;;3.67;;
52730;SDS011;38624;53.242;6.974;2023-10-09T13:37:31;12.02;;;3.50;;
52730;SDS011;38624;53.242;6.974;2023-10-09T13:40:04;12.98;;;3.65;;
52730;SDS011;38624;53.242;6.974;2023-10-09T13:42:36;14.00;;;4.10;;
52730;SDS011;38624;53.242;6.974;2023-10-09T13:45:03;13.05;;;4.00;;
52730;SDS011;38624;53.242;6.974;2023-10-09T13:47:41;11.70;;;3.63;;
52730;SDS011;38624;53.242;6.974;2023-10-09T13:50:09;10.85;;;3.65;;
52730;SDS011;38624;53.242;6.974;2023-10-09T13:52:35;11.17;;;4.00;;
52730;SDS011;38624;53.242;6.974;2023-10-09T13:55:05;14.75;;;4.28;;
52730;SDS011;38624;53.242;6.974;2023-10-09T13:57:41;13.95;;;3.92;;
52730;SDS011;38624;53.242;6.974;2023-10-09T14:00:11;11.93;;;3.45;;
52730;SDS011;38624;53.242;6.974;2023-10-09T14:02:57;9.55;;;3.38;;
52730;SDS011;38624;53.242;6.974;2023-10-09T14:05:27;12.13;;;3.88;;
52730;SDS011;38624;53.242;6.974;2023-10-09T14:07:53;9.55;;;2.90;;
52730;SDS011;38624;53.242;6.974;2023-10-09T14:10:25;10.05;;;3.33;;
52730;SDS011;38624;53.242;6.974;2023-10-09T14:12:55;5.97;;;2.30;;
52730;SDS011;38624;53.242;6.974;2023-10-09T14:15:22;11.30;;;2.65;;
52730;SDS011;38624;53.242;6.974;2023-10-09T14:17:48;11.48;;;2.33;;
52730;SDS011;38624;53.242;6.974;2023-10-09T14:20:21;9.02;;;2.92;;
52730;SDS011;38624;53.242;6.974;2023-10-09T14:22:57;22.67;;;11.48;;
52730;SDS011;38624;53.242;6.974;2023-10-09T14:25:31;10.95;;;2.75;;
52730;SDS011;38624;53.242;6.974;2023-10-09T14:27:58;7.68;;;2.90;;
52730;SDS011;38624;53.242;6.974;2023-10-09T14:30:24;8.90;;;2.87;;
52730;SDS011;38624;53.242;6.974;2023-10-09T14:32:57;8.10;;;2.70;;
52730;SDS011;38624;53.242;6.974;2023-10-09T14:35:26;10.00;;;3.00;;
52730;SDS011;38624;53.242;6.974;2023-10-09T14:37:55;14.55;;;5.93;;
52730;SDS011;38624;53.242;6.974;2023-10-09T14:40:22;8.20;;;2.15;;
52730;SDS011;38624;53.242;6.974;2023-10-09T14:42:58;14.68;;;3.38;;
52730;SDS011;38624;53.242;6.974;2023-10-09T14:45:24;13.80;;;3.03;;
52730;SDS011;38624;53.242;6.974;2023-10-09T14:47:51;9.27;;;2.30;;
52730;SDS011;38624;53.242;6.974;2023-10-09T14:50:19;12.95;;;4.20;;
52730;SDS011;38624;53.242;6.974;2023-10-09T14:52:47;59.65;;;28.42;;
52730;SDS011;38624;53.242;6.974;2023-10-09T14:55:15;8.23;;;2.72;;
52730;SDS011;38624;53.242;6.974;2023-10-09T14:57:47;10.00;;;3.22;;
52730;SDS011;38624;53.242;6.974;2023-10-09T15:00:15;15.15;;;3.20;;
52730;SDS011;38624;53.242;6.974;2023-10-09T15:02:47;10.00;;;2.72;;
52730;SDS011;38624;53.242;6.974;2023-10-09T15:05:15;10.15;;;2.33;;
52730;SDS011;38624;53.242;6.974;2023-10-09T15:07:41;11.63;;;2.83;;
52730;SDS011;38624;53.242;6.974;2023-10-09T15:10:07;11.37;;;2.30;;
52730;SDS011;38624;53.242;6.974;2023-10-09T15:12:35;6.20;;;1.83;;
52730;SDS011;38624;53.242;6.974;2023-10-09T15:15:07;6.25;;;1.88;;
52730;SDS011;38624;53.242;6.974;2023-10-09T15:17:42;5.70;;;1.52;;
52730;SDS011;38624;53.242;6.974;2023-10-09T15:20:13;9.18;;;1.83;;
52730;SDS011;38624;53.242;6.974;2023-10-09T15:22:43;6.13;;;1.80;;
52730;SDS011;38624;53.242;6.974;2023-10-09T15:25:10;6.05;;;1.80;;
52730;SDS011;38624;53.242;6.974;2023-10-09T15:27:48;8.85;;;2.10;;
52730;SDS011;38624;53.242;6.974;2023-10-09T15:30:15;6.57;;;1.90;;
52730;SDS011;38624;53.242;6.974;2023-10-09T15:32:42;9.90;;;2.08;;
52730;SDS011;38624;53.242;6.974;2023-10-09T15:35:11;6.88;;;1.70;;
52730;SDS011;38624;53.242;6.974;2023-10-09T15:37:41;7.20;;;1.80;;
52730;SDS011;38624;53.242;6.974;2023-10-09T15:40:07;8.30;;;1.90;;
52730;SDS011;38624;53.242;6.974;2023-10-09T15:42:43;5.65;;;1.92;;
52730;SDS011;38624;53.242;6.974;2023-10-09T15:45:15;4.63;;;1.38;;